createdAt,value
2022-10-13T04:15:28.023Z,5.12
2022-10-13T04:17:54.495Z,5.13
2022-10-13T04:20:20.893Z,5.16
2022-10-13T04:22:50.206Z,5.19
2022-10-13T04:25:16.937Z,5.20
2022-10-13T04:27:43.611Z,5.29
2022-10-13T04:30:22.328Z,5.28
2022-10-13T04:32:56.235Z,5.31
2022-10-13T04:35:32.422Z,5.34
2022-10-13T04:37:59.323Z,5.36
2022-10-13T04:40:27.871Z,5.35
2022-10-13T04:42:58.403Z,5.33
2022-10-13T04:45:24.888Z,5.36
2022-10-13T04:47:51.392Z,5.34
2022-10-13T04:50:21.653Z,5.33
2022-10-13T04:52:59.097Z,5.33
2022-10-13T04:55:25.578Z,5.33
2022-10-13T04:57:52.067Z,5.30
2022-10-13T05:00:24.126Z,5.33
2022-10-13T05:02:50.714Z,5.34
2022-10-13T05:05:29.582Z,5.34
2022-10-13T05:07:56.038Z,5.32
2022-10-13T05:10:22.451Z,5.29
2022-10-13T05:12:48.883Z,5.24
2022-10-13T05:15:15.367Z,5.26
2022-10-13T05:17:43.067Z,5.30
2022-10-13T05:20:20.732Z,5.26
2022-10-13T05:22:47.628Z,5.26
2022-10-13T05:25:16.359Z,5.29
2022-10-13T05:27:42.921Z,5.29
2022-10-13T05:30:10.011Z,5.33
2022-10-13T05:32:36.535Z,5.34
2022-10-13T05:35:03.436Z,5.37
2022-10-13T05:37:30.022Z,5.40
2022-10-13T05:39:57.569Z,5.40
2022-10-13T05:42:24.077Z,5.39
2022-10-13T05:44:52.627Z,5.36
2022-10-13T05:47:19.123Z,5.41
2022-10-13T05:49:45.577Z,5.46
2022-10-13T05:52:12.785Z,5.49
2022-10-13T05:54:47.233Z,5.46
2022-10-13T05:57:25.912Z,5.50
2022-10-13T06:00:01.816Z,5.47
2022-10-13T06:02:51.992Z,5.40
2022-10-13T06:05:20.981Z,5.45
2022-10-13T06:07:53.380Z,5.51
2022-10-13T06:10:20.051Z,5.43
2022-10-13T06:12:51.483Z,5.46
2022-10-13T06:15:17.940Z,5.45
2022-10-13T06:17:44.668Z,5.39
2022-10-13T06:20:11.383Z,5.50
2022-10-13T06:22:38.705Z,5.53
2022-10-13T06:25:07.063Z,5.50
2022-10-13T06:27:33.559Z,5.45
2022-10-13T06:29:59.974Z,5.48
2022-10-13T06:32:26.435Z,5.74
2022-10-13T06:34:53.833Z,5.82
2022-10-13T06:37:24.689Z,5.81
2022-10-13T06:39:53.587Z,5.88
2022-10-13T06:42:21.545Z,5.79
2022-10-13T06:45:04.893Z,5.82
2022-10-13T06:47:31.557Z,5.85
2022-10-13T06:49:57.972Z,5.97
2022-10-13T06:52:24.455Z,6.09
2022-10-13T06:54:52.932Z,6.08
2022-10-13T06:57:19.385Z,6.17
2022-10-13T06:59:45.839Z,6.13
2022-10-13T07:02:12.377Z,6.24
2022-10-13T07:04:38.810Z,6.18
2022-10-13T07:07:05.279Z,6.31
2022-10-13T07:09:31.828Z,6.43
2022-10-13T07:11:59.280Z,6.52
2022-10-13T07:14:26.069Z,6.65
2022-10-13T07:16:53.091Z,6.76
2022-10-13T07:19:19.632Z,6.87
2022-10-13T07:21:46.069Z,6.94
2022-10-13T07:24:12.694Z,7.02
2022-10-13T07:26:39.194Z,7.10
2022-10-13T07:29:05.980Z,7.23
2022-10-13T07:31:32.466Z,7.25
2022-10-13T07:34:02.183Z,7.29
2022-10-13T07:36:31.052Z,7.38
2022-10-13T07:39:01.023Z,7.36
2022-10-13T07:41:27.487Z,7.35
2022-10-13T07:43:56.481Z,7.11
2022-10-13T07:46:23.284Z,7.11
2022-10-13T07:48:49.830Z,7.09
2022-10-13T07:51:17.285Z,7.14
2022-10-13T07:53:48.634Z,7.10
2022-10-13T07:56:20.474Z,7.14
2022-10-13T07:58:50.057Z,7.28
2022-10-13T08:01:17.932Z,7.41
2022-10-13T08:03:48.966Z,7.46
2022-10-13T08:06:18.365Z,7.57
2022-10-13T08:08:44.897Z,7.67
2022-10-13T08:11:17.499Z,7.60
2022-10-13T08:13:52.328Z,7.41
2022-10-13T08:16:22.151Z,7.49
2022-10-13T08:19:17.069Z,7.74
2022-10-13T08:22:01.868Z,7.77
2022-10-13T08:24:29.410Z,7.82
2022-10-13T08:26:56.295Z,7.84
2022-10-13T08:29:28.547Z,7.89
2022-10-13T08:31:55.765Z,7.84
2022-10-13T08:34:23.873Z,7.83
2022-10-13T08:36:53.457Z,8.03
2022-10-13T08:39:22.294Z,8.25
2022-10-13T08:41:49.230Z,8.43
2022-10-13T08:47:53.377Z,8.77
2022-10-13T08:50:23.911Z,8.64
2022-10-13T08:53:05.768Z,8.67
2022-10-13T08:55:41.349Z,8.77
2022-10-13T08:58:34.952Z,8.90
2022-10-13T09:01:12.908Z,8.90
2022-10-13T09:04:08.094Z,8.76
2022-10-13T09:06:49.569Z,8.95
2022-10-13T09:09:16.846Z,8.96
2022-10-13T09:11:50.370Z,8.99
2022-10-13T09:14:24.471Z,8.95
2022-10-13T09:16:52.348Z,8.98
2022-10-13T09:19:36.817Z,8.91
2022-10-13T09:22:41.184Z,8.89
2022-10-13T09:25:07.587Z,8.90
2022-10-13T09:27:50.181Z,8.76
2022-10-13T09:30:33.798Z,8.80
2022-10-13T09:33:11.734Z,8.74
2022-10-13T09:35:44.277Z,8.77
2022-10-13T09:38:15.968Z,8.77
2022-10-13T09:43:35.040Z,8.81
2022-10-13T09:46:04.233Z,8.99
2022-10-13T09:48:36.684Z,8.95
2022-10-13T09:51:03.376Z,9.15
2022-10-13T09:53:39.966Z,9.13
2022-10-13T09:56:25.750Z,9.21
2022-10-13T09:59:05.983Z,9.17
2022-10-13T10:01:41.267Z,9.35
2022-10-13T10:04:20.484Z,9.12
2022-10-13T10:06:46.976Z,9.14
2022-10-13T10:09:38.686Z,8.73
2022-10-13T10:12:06.207Z,8.89
2022-10-13T10:14:39.247Z,8.79
2022-10-13T10:17:36.721Z,9.13
2022-10-13T10:20:49.438Z,9.01
2022-10-13T10:23:29.095Z,9.07
2022-10-13T10:26:10.530Z,8.87
2022-10-13T10:28:47.476Z,8.90
2022-10-13T10:31:37.273Z,9.06
2022-10-13T10:34:38.058Z,8.72
2022-10-13T10:37:25.538Z,8.71
2022-10-13T10:40:29.214Z,8.74
2022-10-13T10:43:15.846Z,9.21
2022-10-13T10:45:43.372Z,9.27
2022-10-13T10:48:34.752Z,9.31
2022-10-13T10:51:02.040Z,9.34
2022-10-13T10:53:47.131Z,9.05
2022-10-13T10:56:28.821Z,8.94
2022-10-13T10:59:29.595Z,8.83
2022-10-13T11:02:34.565Z,8.83
2022-10-13T11:05:06.325Z,8.97
2022-10-13T11:07:33.267Z,9.07
2022-10-13T11:10:27.937Z,8.90
2022-10-13T11:12:55.183Z,9.04
2022-10-13T11:15:24.595Z,9.78
2022-10-13T11:17:52.207Z,9.93
2022-10-13T11:24:42.761Z,10.57
2022-10-13T11:27:13.876Z,10.87
2022-10-13T11:30:41.517Z,11.38
2022-10-13T11:33:33.340Z,11.39
2022-10-13T11:36:29.484Z,11.88
2022-10-13T11:39:28.881Z,12.22
2022-10-13T11:42:36.443Z,11.92
2022-10-13T11:45:17.411Z,11.73
2022-10-13T11:48:21.675Z,11.42
2022-10-13T11:51:12.579Z,11.04
2022-10-13T11:53:57.927Z,10.99
2022-10-13T11:56:51.562Z,11.44
2022-10-13T11:59:22.626Z,11.17
2022-10-13T12:01:54.568Z,11.05
2022-10-13T12:04:23.480Z,10.40
2022-10-13T12:07:17.104Z,9.87
2022-10-13T12:09:52.330Z,10.02
2022-10-13T12:12:23.417Z,10.16
2022-10-13T12:14:55.135Z,10.01
2022-10-13T12:17:26.172Z,10.01
2022-10-13T12:19:54.632Z,10.03
2022-10-13T12:22:21.117Z,10.21
2022-10-13T12:24:59.572Z,10.43
2022-10-13T12:27:27.896Z,10.49
2022-10-13T12:29:54.796Z,10.45
2022-10-13T12:32:24.097Z,10.29
2022-10-13T12:34:51.049Z,10.15
2022-10-13T12:37:33.364Z,10.04
2022-10-13T12:40:01.189Z,10.02
2022-10-13T12:42:31.264Z,10.28
2022-10-13T12:44:59.475Z,10.13
2022-10-13T12:47:53.519Z,10.04
2022-10-13T12:50:38.678Z,10.15
2022-10-13T12:53:08.252Z,10.21
2022-10-13T12:55:45.284Z,10.05
2022-10-13T12:58:21.512Z,10.00
2022-10-13T13:01:03.773Z,10.17
2022-10-13T13:03:36.292Z,9.86
2022-10-13T13:06:13.163Z,9.86
2022-10-13T13:08:42.126Z,9.90
2022-10-13T13:11:32.806Z,10.04
2022-10-13T13:14:37.175Z,9.89
2022-10-13T13:17:06.948Z,9.86
2022-10-13T13:19:36.437Z,9.92
2022-10-13T13:22:06.268Z,10.02
2022-10-13T13:24:40.251Z,10.32
2022-10-13T13:27:27.974Z,10.25
2022-10-13T13:29:55.863Z,10.56
2022-10-13T13:32:27.785Z,10.51
2022-10-13T13:34:55.689Z,10.78
2022-10-13T13:37:30.855Z,10.69
2022-10-13T13:39:58.556Z,10.78
2022-10-13T13:42:27.020Z,10.31
2022-10-13T13:44:56.215Z,10.18
2022-10-13T13:47:26.039Z,10.40
2022-10-13T13:49:54.805Z,10.43
2022-10-13T13:52:21.947Z,10.33
2022-10-13T13:54:50.768Z,10.18
2022-10-13T13:57:18.064Z,10.48
2022-10-13T13:59:44.962Z,10.56
2022-10-13T14:02:20.387Z,10.48
2022-10-13T14:04:47.277Z,10.51
2022-10-13T14:07:16.792Z,10.36
2022-10-13T14:10:16.814Z,10.32
2022-10-13T14:12:43.361Z,10.66
2022-10-13T14:15:10.334Z,10.81
2022-10-13T14:17:36.822Z,10.67
2022-10-13T14:20:03.893Z,10.44
2022-10-13T14:22:33.124Z,10.60
2022-10-13T14:24:59.590Z,10.49
2022-10-13T14:27:26.103Z,10.32
2022-10-13T14:29:54.750Z,10.45
2022-10-13T14:32:24.372Z,10.39
2022-10-13T14:34:50.864Z,10.26
2022-10-13T14:37:20.883Z,10.24
2022-10-13T14:39:49.524Z,10.17
2022-10-13T14:42:15.959Z,10.30
2022-10-13T14:44:42.395Z,10.37
2022-10-13T14:47:08.945Z,10.54
2022-10-13T14:49:37.929Z,10.59
2022-10-13T14:52:04.736Z,10.86
2022-10-13T14:54:31.521Z,10.70
2022-10-13T14:57:00.842Z,10.87
2022-10-13T14:59:27.575Z,10.78
2022-10-13T15:01:53.975Z,10.83
2022-10-13T15:04:20.455Z,10.91
2022-10-13T15:06:46.919Z,11.11
2022-10-13T15:09:13.439Z,11.04
2022-10-13T15:11:39.920Z,10.97
2022-10-13T15:14:07.409Z,11.05
2022-10-13T15:16:34.019Z,10.81
2022-10-13T15:19:00.546Z,10.90
2022-10-13T15:21:27.140Z,10.86
2022-10-13T15:23:53.629Z,10.87
2022-10-13T15:26:20.738Z,10.75
2022-10-13T15:28:50.018Z,10.83
2022-10-13T15:31:18.363Z,10.66
2022-10-13T15:33:46.995Z,10.80
2022-10-13T15:36:14.319Z,10.81
2022-10-13T15:38:40.925Z,10.69
2022-10-13T15:41:07.899Z,10.72
2022-10-13T15:43:34.577Z,10.77
2022-10-13T15:46:12.354Z,10.89
2022-10-13T15:48:43.540Z,10.60
2022-10-13T15:51:19.542Z,10.61
2022-10-13T15:53:47.670Z,10.57
2022-10-13T15:56:17.780Z,10.47
2022-10-13T15:58:45.368Z,10.39
2022-10-13T16:01:13.822Z,10.22
2022-10-13T16:03:41.161Z,9.97
2022-10-13T16:06:10.001Z,9.92
2022-10-13T16:08:41.378Z,10.03
2022-10-13T16:11:09.417Z,10.02
2022-10-13T16:13:36.365Z,9.98
2022-10-13T16:16:02.984Z,9.90
2022-10-13T16:18:30.895Z,10.01
2022-10-13T16:20:57.465Z,10.00
2022-10-13T16:23:28.703Z,10.10
2022-10-13T16:25:55.158Z,10.17
2022-10-13T16:28:21.825Z,10.19
2022-10-13T16:30:48.380Z,10.24
2022-10-13T16:33:15.010Z,10.09
2022-10-13T16:35:41.687Z,10.19
2022-10-13T16:38:08.903Z,9.90
2022-10-13T16:40:38.988Z,9.80
2022-10-13T16:43:06.554Z,9.81
2022-10-13T16:48:32.175Z,9.81
2022-10-13T16:50:59.390Z,9.84
2022-10-13T16:57:03.194Z,9.93
2022-10-13T16:59:29.734Z,10.00
2022-10-13T17:01:59.430Z,9.98
2022-10-13T17:04:31.674Z,10.03
2022-10-13T17:06:58.308Z,10.06
2022-10-13T17:09:25.450Z,10.04
2022-10-13T17:11:57.837Z,10.01
2022-10-13T17:14:24.850Z,10.00
2022-10-13T17:16:56.744Z,9.96
2022-10-13T17:19:24.207Z,9.87
2022-10-13T17:21:50.634Z,10.04
2022-10-13T17:24:17.269Z,10.15
2022-10-13T17:26:49.380Z,10.19
2022-10-13T17:29:46.479Z,10.26
2022-10-13T17:32:13.472Z,10.33
2022-10-13T17:34:39.986Z,10.35
2022-10-13T17:37:07.163Z,10.31
2022-10-13T17:39:33.812Z,10.30
2022-10-13T17:42:00.243Z,10.25
2022-10-13T17:44:26.752Z,10.29
2022-10-13T17:46:53.218Z,10.30
2022-10-13T17:49:19.671Z,10.23
2022-10-13T17:51:49.965Z,10.17
2022-10-13T17:54:16.921Z,10.14
2022-10-13T17:56:45.153Z,10.22
2022-10-13T17:59:17.198Z,10.26
2022-10-13T18:01:44.852Z,10.24
2022-10-13T18:04:14.246Z,10.12
2022-10-13T18:06:43.801Z,9.95
2022-10-13T18:09:16.678Z,9.85
2022-10-13T18:11:49.772Z,9.88
2022-10-13T18:14:17.960Z,9.76
2022-10-13T18:16:44.879Z,9.81
2022-10-13T18:19:12.466Z,9.79
2022-10-13T18:21:38.880Z,9.71
2022-10-13T18:24:05.727Z,9.64
2022-10-13T18:26:35.673Z,9.74
2022-10-13T18:29:03.743Z,9.77
2022-10-13T18:31:32.689Z,9.85
2022-10-13T18:34:04.814Z,9.77
2022-10-13T18:36:34.558Z,9.93
2022-10-13T18:39:08.433Z,9.99
2022-10-13T18:41:37.269Z,9.97
2022-10-13T18:44:05.083Z,9.72
2022-10-13T18:46:36.239Z,9.79
2022-10-13T18:49:04.317Z,9.76
2022-10-13T18:51:35.632Z,9.66
2022-10-13T18:54:03.409Z,9.66
2022-10-13T18:56:31.272Z,9.86
2022-10-13T18:59:00.359Z,9.66
2022-10-13T19:01:29.516Z,9.55
2022-10-13T19:03:56.451Z,9.33
2022-10-13T19:06:27.031Z,9.12
2022-10-13T19:08:58.494Z,9.25
2022-10-13T19:11:25.094Z,9.10
2022-10-13T19:13:52.428Z,9.39
2022-10-13T19:16:22.225Z,9.37
2022-10-13T19:18:49.206Z,9.31
2022-10-13T19:21:16.950Z,9.24
2022-10-13T19:23:43.653Z,9.24
2022-10-13T19:26:25.495Z,9.12
2022-10-13T19:29:07.964Z,9.34
2022-10-13T19:31:35.818Z,9.21
2022-10-13T19:34:07.373Z,9.32
2022-10-13T19:36:37.709Z,9.33
2022-10-13T19:39:07.022Z,9.54
2022-10-13T19:41:34.177Z,9.61
2022-10-13T19:44:02.151Z,9.61
2022-10-13T19:46:38.841Z,9.55
2022-10-13T19:49:05.358Z,9.52
2022-10-13T19:51:33.369Z,9.69
2022-10-13T19:54:00.398Z,9.46
2022-10-13T19:56:31.314Z,9.67
2022-10-13T19:58:58.424Z,9.77
2022-10-13T20:01:24.948Z,9.61
2022-10-13T20:03:51.503Z,9.62
2022-10-13T20:06:18.818Z,9.67
2022-10-13T20:08:45.755Z,9.51
2022-10-13T20:11:24.497Z,9.54
2022-10-13T20:13:52.087Z,9.47
2022-10-13T20:16:21.453Z,9.34
2022-10-13T20:18:59.201Z,9.34
2022-10-13T20:21:27.386Z,9.27
2022-10-13T20:23:54.205Z,9.14
2022-10-13T20:26:21.039Z,9.31
2022-10-13T20:28:48.998Z,9.31
2022-10-13T20:31:17.643Z,9.36
2022-10-13T20:33:44.716Z,9.42
2022-10-13T20:36:13.488Z,9.55
2022-10-13T20:38:40.323Z,9.34
2022-10-13T20:41:15.810Z,9.39
2022-10-13T20:43:42.255Z,9.38
2022-10-13T20:46:09.229Z,9.37
2022-10-13T20:49:05.174Z,9.53
2022-10-13T20:51:24.670Z,9.58
2022-10-13T20:53:51.944Z,9.64
2022-10-13T20:56:23.813Z,9.58
2022-10-13T20:58:51.222Z,9.72
2022-10-13T21:01:20.830Z,9.74
2022-10-13T21:03:54.206Z,9.72
2022-10-13T21:06:22.244Z,9.77
2022-10-13T21:08:49.110Z,9.68
2022-10-13T21:11:17.733Z,9.75
2022-10-13T21:13:45.084Z,9.63
2022-10-13T21:16:13.915Z,9.57
2022-10-13T21:18:40.824Z,9.47
2022-10-13T21:21:10.342Z,9.33
2022-10-13T21:23:37.602Z,9.47
2022-10-13T21:26:06.431Z,9.35
2022-10-13T21:28:33.988Z,9.50
2022-10-13T21:31:06.037Z,9.40
2022-10-13T21:33:35.819Z,9.31
2022-10-13T21:36:25.797Z,9.35
2022-10-13T21:38:55.717Z,9.35
2022-10-13T21:41:23.111Z,9.37
2022-10-13T21:43:50.987Z,9.46
2022-10-13T21:46:23.620Z,9.41
2022-10-13T21:48:57.828Z,9.40
2022-10-13T21:51:33.132Z,9.27
2022-10-13T21:54:03.685Z,9.27
2022-10-13T21:56:31.285Z,9.14
2022-10-13T21:58:58.996Z,9.05
